Time;durP1;ratioP1;P1;durP2;ratioP2;P2;SDS_P1;SDS_P2;PMS_P1;PMS_P2;Temp;Humidity;BMP_temperature;BMP_pressure;BME280_temperature;BME280_humidity;BME280_pressure;Samples;Min_cycle;Max_cycle;Signal;HPM_P1;HPM_P2
2022/08/18 00:00:34;;;;;;;;;;;;;;;21.58;61.18;100234.28;4982047;28;6976;-73
2022/08/18 00:03:06;;;;;;;;;;;;;;;21.56;61.37;100251.69;5013290;28;6792;-74
2022/08/18 00:05:32;;;;;;;;;;;;;;;21.54;61.52;100243.00;4991497;28;7071;-74
2022/08/18 00:07:58;;;;;;;;;;;;;;;21.51;61.72;100249.91;5012795;28;6996;-74
2022/08/18 00:10:25;;;;;;;;;;;;;;;21.50;61.89;100257.75;4975989;28;6856;-74
2022/08/18 00:12:51;;;;;;;;;;;;;;;21.48;61.71;100262.97;5011029;28;6860;-74
2022/08/18 00:15:18;;;;;;;;;;;;;;;21.46;61.99;100266.44;5011098;28;6791;-74
2022/08/18 00:17:45;;;;;;;;;;;;;;;21.41;61.88;100258.59;4979151;28;7443;-74
2022/08/18 00:20:18;;;;;;;;;;;;;;;21.40;62.03;100256.88;4982757;28;7260;-74
2022/08/18 00:22:44;;;;;;;;;;;;;;;21.36;61.55;100256.00;5010727;28;6876;-74
2022/08/18 00:25:13;;;;;;;;;;;;;;;21.35;61.64;100256.88;5008445;28;6999;-74
2022/08/18 00:27:40;;;;;;;;;;;;;;;21.32;61.55;100253.38;4973830;28;8560;-74
2022/08/18 00:30:11;;;;;;;;;;;;;;;21.29;61.73;100258.59;4984308;28;6808;-74
2022/08/18 00:32:45;;;;;;;;;;;;;;;21.25;62.25;100255.13;4996737;28;7244;-74
2022/08/18 00:35:19;;;;;;;;;;;;;;;21.23;62.27;100252.50;4970886;28;7192;-73
2022/08/18 00:37:47;;;;;;;;;;;;;;;21.22;62.42;100253.38;4976054;28;6800;-74
2022/08/18 00:40:18;;;;;;;;;;;;;;;21.21;62.05;100254.25;4994121;28;7170;-74
2022/08/18 00:42:53;;;;;;;;;;;;;;;21.20;62.10;100255.09;4979744;28;8084;-74
2022/08/18 00:45:27;;;;;;;;;;;;;;;21.18;61.94;100259.44;4977976;28;6812;-74
2022/08/18 00:47:53;;;;;;;;;;;;;;;21.16;62.14;100261.19;5015130;28;6804;-74
2022/08/18 00:50:54;;;;;;;;;;;;;;;21.15;61.90;100256.84;5003865;28;6987;-74
2022/08/18 00:53:30;;;;;;;;;;;;;;;21.13;61.27;100255.94;4979524;28;6884;-74
2022/08/18 00:56:03;;;;;;;;;;;;;;;21.10;61.66;100258.56;5012663;28;7170;-74
2022/08/18 00:58:48;;;;;;;;;;;;;;;21.05;61.45;100255.94;5026790;28;6958;-74
2022/08/18 01:01:18;;;;;;;;;;;;;;;21.03;61.24;100254.19;5012503;28;8129;-74
2022/08/18 01:03:51;;;;;;;;;;;;;;;21.03;61.09;100248.97;4994016;28;6999;-74
2022/08/18 01:06:43;;;;;;;;;;;;;;;21.01;61.44;100242.91;5010569;28;7829;-74
2022/08/18 01:09:10;;;;;;;;;;;;;;;20.99;61.48;100252.47;4979814;28;8052;-73
2022/08/18 01:11:37;;;;;;;;;;;;;;;20.98;61.81;100248.97;4980218;28;6860;-74
2022/08/18 01:14:07;;;;;;;;;;;;;;;20.98;61.48;100248.13;4985563;28;6800;-74
2022/08/18 01:22:27;;;;;;;;;;;;;;;20.95;61.80;100244.63;5007904;28;6792;-74
2022/08/18 01:27:42;;;;;;;;;;;;;;;20.92;61.41;100248.97;5010413;28;6804;-74
2022/08/18 01:30:13;;;;;;;;;;;;;;;20.92;61.35;100252.44;5011865;28;6788;-74
2022/08/18 01:32:44;;;;;;;;;;;;;;;20.90;61.24;100256.78;4977161;28;11320;-74
2022/08/18 01:35:16;;;;;;;;;;;;;;;20.91;61.83;100258.50;4975603;28;7261;-74
2022/08/18 01:37:42;;;;;;;;;;;;;;;20.92;61.58;100270.66;5014038;28;7302;-73
2022/08/18 01:40:11;;;;;;;;;;;;;;;20.91;62.07;100271.53;5010553;28;6768;-73
2022/08/18 01:42:38;;;;;;;;;;;;;;;20.94;62.57;100276.75;4975140;28;6800;-74
2022/08/18 01:45:06;;;;;;;;;;;;;;;20.98;62.39;100274.16;5009581;28;7040;-74
2022/08/18 01:47:34;;;;;;;;;;;;;;;21.01;62.38;100271.56;4994804;28;7420;-74
2022/08/18 01:50:00;;;;;;;;;;;;;;;21.02;62.44;100274.19;4985693;28;7379;-74
2022/08/18 01:52:28;;;;;;;;;;;;;;;21.04;62.47;100279.38;5008541;28;6796;-74
2022/08/18 01:54:56;;;;;;;;;;;;;;;21.05;62.47;100275.91;5014620;28;6815;-74
2022/08/18 01:57:22;;;;;;;;;;;;;;;21.08;62.73;100281.16;4980536;28;6832;-74
2022/08/18 01:59:48;;;;;;;;;;;;;;;21.11;62.46;100281.16;4978701;28;7208;-74
2022/08/18 02:02:23;;;;;;;;;;;;;;;21.12;62.92;100277.66;4977508;28;6776;-74
2022/08/18 02:05:00;;;;;;;;;;;;;;;21.15;62.67;100282.91;5010269;28;7161;-74
2022/08/18 02:07:26;;;;;;;;;;;;;;;21.17;62.80;100265.53;5009876;28;7059;-74
2022/08/18 02:09:51;;;;;;;;;;;;;;;21.19;62.63;100273.34;5000113;28;6938;-74
2022/08/18 02:12:17;;;;;;;;;;;;;;;21.20;62.78;100273.34;4979200;28;6934;-74
2022/08/18 02:14:43;;;;;;;;;;;;;;;21.21;62.81;100272.47;5012817;28;8501;-74
2022/08/18 02:17:12;;;;;;;;;;;;;;;21.21;62.67;100267.25;4982696;28;7114;-74
2022/08/18 02:19:47;;;;;;;;;;;;;;;21.21;62.74;100264.66;4980196;28;6808;-74
2022/08/18 02:22:17;;;;;;;;;;;;;;;21.20;62.80;100264.69;5012631;28;6864;-74
2022/08/18 02:24:44;;;;;;;;;;;;;;;21.16;62.30;100263.81;5011331;28;6864;-74
2022/08/18 02:27:12;;;;;;;;;;;;;;;21.12;62.37;100261.19;5010557;28;7354;-74
2022/08/18 02:29:38;;;;;;;;;;;;;;;21.07;62.29;100266.38;4975640;28;6969;-74
2022/08/18 02:32:04;;;;;;;;;;;;;;;21.02;62.05;100271.59;4997274;28;7205;-73
2022/08/18 02:34:30;;;;;;;;;;;;;;;20.97;62.19;100254.19;4976547;28;6808;-74
2022/08/18 02:36:59;;;;;;;;;;;;;;;20.94;62.29;100257.66;4974884;28;6796;-74
2022/08/18 02:39:27;;;;;;;;;;;;;;;20.92;62.90;100257.66;5012735;28;7047;-74
2022/08/18 02:41:52;;;;;;;;;;;;;;;20.91;62.37;100252.44;4981448;28;7167;-73
2022/08/18 02:44:18;;;;;;;;;;;;;;;20.88;62.28;100255.91;4981669;28;6844;-73
2022/08/18 02:46:43;;;;;;;;;;;;;;;20.86;62.49;100252.44;5010125;28;6941;-73
2022/08/18 02:49:09;;;;;;;;;;;;;;;20.86;62.57;100257.66;4988914;28;6963;-73
2022/08/18 02:51:35;;;;;;;;;;;;;;;20.84;62.59;100261.94;5008374;28;6999;-74
2022/08/18 02:54:01;;;;;;;;;;;;;;;20.84;62.41;100261.94;4978403;28;7133;-74
2022/08/18 02:56:30;;;;;;;;;;;;;;;20.85;62.91;100260.22;4980210;28;7120;-74
2022/08/18 02:59:03;;;;;;;;;;;;;;;20.85;62.48;100261.09;5011735;28;6852;-73
2022/08/18 03:01:33;;;;;;;;;;;;;;;20.86;62.43;100259.38;5011859;28;7077;-73
2022/08/18 03:04:00;;;;;;;;;;;;;;;20.85;62.78;100255.88;4984993;28;6776;-73
2022/08/18 03:06:29;;;;;;;;;;;;;;;20.87;62.81;100254.16;5027432;28;7039;-74
2022/08/18 03:08:54;;;;;;;;;;;;;;;20.88;63.23;100242.00;5011290;28;6975;-74
2022/08/18 03:11:25;;;;;;;;;;;;;;;20.91;63.38;100242.88;5009201;28;7200;-74
2022/08/18 03:13:51;;;;;;;;;;;;;;;20.97;63.50;100249.00;4965104;28;7242;-74
2022/08/18 03:16:17;;;;;;;;;;;;;;;21.04;63.97;100237.69;5012617;28;7361;-74
2022/08/18 03:18:45;;;;;;;;;;;;;;;21.10;64.00;100232.50;5008975;28;7179;-74
2022/08/18 03:21:15;;;;;;;;;;;;;;;21.19;63.93;100237.72;5012324;28;7694;-74
2022/08/18 03:23:42;;;;;;;;;;;;;;;21.28;64.14;100222.97;4973064;28;6816;-74
2022/08/18 03:26:12;;;;;;;;;;;;;;;21.36;64.22;100224.72;4982678;28;6844;-74
2022/08/18 03:28:43;;;;;;;;;;;;;;;21.44;64.32;100227.34;4995711;28;7997;-74
2022/08/18 03:31:11;;;;;;;;;;;;;;;21.53;64.24;100238.63;5006912;28;6792;-73
2022/08/18 03:33:37;;;;;;;;;;;;;;;21.60;64.27;100233.44;4993277;28;6979;-73
2022/08/18 03:36:11;;;;;;;;;;;;;;;21.67;64.00;100231.72;4974492;28;6970;-73
2022/08/18 03:38:38;;;;;;;;;;;;;;;21.75;63.69;100231.69;5008503;28;7345;-73
2022/08/18 03:41:07;;;;;;;;;;;;;;;21.80;63.89;100235.19;4973741;28;7039;-73
2022/08/18 03:43:33;;;;;;;;;;;;;;;21.88;63.69;100237.78;5008958;28;7001;-74
2022/08/18 03:46:02;;;;;;;;;;;;;;;21.94;63.52;100240.38;5008177;28;6859;-73
2022/08/18 03:48:28;;;;;;;;;;;;;;;21.97;63.66;100242.97;5012148;28;6856;-74
2022/08/18 03:50:53;;;;;;;;;;;;;;;22.01;63.39;100242.09;5010319;28;6939;-74
2022/08/18 03:53:19;;;;;;;;;;;;;;;22.06;63.36;100245.56;4978972;28;6778;-73
2022/08/18 03:55:45;;;;;;;;;;;;;;;22.11;63.60;100249.91;4987809;28;7030;-73
2022/08/18 03:58:14;;;;;;;;;;;;;;;22.14;63.37;100252.53;5010633;28;6780;-73
2022/08/18 04:00:40;;;;;;;;;;;;;;;22.17;63.33;100255.13;4971321;28;6809;-73
2022/08/18 04:03:06;;;;;;;;;;;;;;;22.21;63.38;100256.81;5012344;28;7107;-73
2022/08/18 04:05:34;;;;;;;;;;;;;;;22.24;63.03;100256.84;4978701;28;6776;-73
2022/08/18 04:08:02;;;;;;;;;;;;;;;22.26;63.26;100255.09;5028540;28;8899;-74
2022/08/18 04:10:28;;;;;;;;;;;;;;;22.28;63.07;100252.50;5011905;28;8536;-74
2022/08/18 04:12:53;;;;;;;;;;;;;;;22.30;63.04;100241.16;5031986;28;6955;-74
2022/08/18 04:15:19;;;;;;;;;;;;;;;22.33;63.02;100249.00;5010010;28;6863;-73
2022/08/18 04:17:45;;;;;;;;;;;;;;;22.34;63.29;100239.41;5011622;28;7105;-73
2022/08/18 04:20:12;;;;;;;;;;;;;;;22.37;63.34;100238.53;5011711;28;7207;-73
2022/08/18 04:22:39;;;;;;;;;;;;;;;22.37;62.90;100243.75;4974443;28;6980;-73
2022/08/18 04:25:08;;;;;;;;;;;;;;;22.37;63.19;100247.25;5012226;28;6831;-73
2022/08/18 04:27:38;;;;;;;;;;;;;;;22.39;62.90;100249.81;5011182;28;6975;-73
2022/08/18 04:30:05;;;;;;;;;;;;;;;22.36;62.95;100252.47;4996452;28;7122;-73
2022/08/18 04:32:31;;;;;;;;;;;;;;;22.30;63.00;100254.19;5010676;28;7125;-73
2022/08/18 04:34:57;;;;;;;;;;;;;;;22.29;62.76;100255.06;5014487;28;6775;-73
2022/08/18 04:37:23;;;;;;;;;;;;;;;22.28;62.84;100262.94;5008545;28;7133;-73
2022/08/18 04:39:48;;;;;;;;;;;;;;;22.23;62.42;100252.50;5012139;28;7130;-73
2022/08/18 04:42:14;;;;;;;;;;;;;;;22.20;62.77;100253.38;4984190;28;6771;-73
2022/08/18 04:44:40;;;;;;;;;;;;;;;22.20;62.92;100255.97;5000631;28;9536;-73
2022/08/18 04:47:11;;;;;;;;;;;;;;;22.22;63.28;100253.38;5011480;28;7023;-73
2022/08/18 04:49:38;;;;;;;;;;;;;;;22.22;63.06;100256.00;5014150;28;7164;-74
2022/08/18 04:54:50;;;;;;;;;;;;;;;22.27;63.25;100267.25;5012821;28;6816;-74
2022/08/18 04:57:19;;;;;;;;;;;;;;;22.30;63.24;100272.47;5028860;28;6956;-73
2022/08/18 04:59:49;;;;;;;;;;;;;;;22.32;63.04;100275.97;4985594;28;6792;-73
2022/08/18 05:02:17;;;;;;;;;;;;;;;22.36;63.23;100270.72;5011757;28;6864;-73
2022/08/18 05:04:47;;;;;;;;;;;;;;;22.36;63.44;100276.84;4985954;28;6971;-73
2022/08/18 05:07:18;;;;;;;;;;;;;;;22.37;62.97;100288.13;5013180;28;6804;-73
2022/08/18 05:09:45;;;;;;;;;;;;;;;22.37;63.07;100278.56;4987085;28;6812;-73
2022/08/18 05:12:13;;;;;;;;;;;;;;;22.39;63.03;100284.66;4994963;28;6816;-73
2022/08/18 05:14:41;;;;;;;;;;;;;;;22.40;63.20;100290.72;5013205;28;6799;-73
2022/08/18 05:17:07;;;;;;;;;;;;;;;22.39;63.09;100287.25;5013238;28;6788;-73
2022/08/18 05:19:34;;;;;;;;;;;;;;;22.40;63.05;100296.81;5016657;28;6780;-73
2022/08/18 05:22:01;;;;;;;;;;;;;;;22.42;63.24;100291.63;5011390;28;6927;-73
2022/08/18 05:24:31;;;;;;;;;;;;;;;22.42;63.23;100289.84;4956523;28;7191;-73
2022/08/18 05:26:58;;;;;;;;;;;;;;;22.45;63.15;100288.97;4979999;28;6839;-73
2022/08/18 05:29:23;;;;;;;;;;;;;;;22.50;62.89;100300.28;5013337;28;6792;-74
2022/08/18 05:31:52;;;;;;;;;;;;;;;22.52;62.84;100292.47;4980517;28;6858;-74
2022/08/18 05:34:20;;;;;;;;;;;;;;;22.54;62.77;100301.16;4978935;28;7621;-74
2022/08/18 05:36:56;;;;;;;;;;;;;;;22.53;62.92;100302.91;5001143;28;6982;-74
2022/08/18 05:39:35;;;;;;;;;;;;;;;22.54;63.05;100299.44;4985866;28;6954;-74
2022/08/18 05:42:24;;;;;;;;;;;;;;;22.55;62.85;100301.16;5012287;28;6815;-74
2022/08/18 05:44:53;;;;;;;;;;;;;;;22.58;63.30;100303.75;5015786;28;7189;-74
2022/08/18 05:47:30;;;;;;;;;;;;;;;22.62;63.20;100299.41;4998365;28;6878;-74
2022/08/18 05:50:09;;;;;;;;;;;;;;;22.66;63.09;100310.72;5007855;28;6820;-74
2022/08/18 05:52:59;;;;;;;;;;;;;;;22.68;63.02;100308.94;5012363;28;7239;-74
2022/08/18 05:58:37;;;;;;;;;;;;;;;22.74;63.02;100316.78;5002238;28;6852;-74
2022/08/18 06:01:29;;;;;;;;;;;;;;;22.76;62.63;100317.63;5007442;28;7214;-73
2022/08/18 06:04:32;;;;;;;;;;;;;;;22.80;62.36;100322.00;4982403;28;6887;-73
2022/08/18 06:07:04;;;;;;;;;;;;;;;22.82;62.72;100330.69;4981939;28;7183;-73
2022/08/18 06:09:48;;;;;;;;;;;;;;;22.84;62.73;100315.88;5006885;28;6930;-74
2022/08/18 06:12:40;;;;;;;;;;;;;;;22.86;63.08;100321.94;5007467;28;7880;-74
2022/08/18 06:15:38;;;;;;;;;;;;;;;22.94;62.56;100327.16;5010708;28;6820;-73
2022/08/18 06:18:23;;;;;;;;;;;;;;;22.98;62.45;100317.53;4985862;28;7076;-73
2022/08/18 06:21:30;;;;;;;;;;;;;;;23.01;62.83;100323.63;5007838;28;7410;-74
2022/08/18 06:24:36;;;;;;;;;;;;;;;23.05;62.75;100323.63;5003644;28;6807;-74
2022/08/18 06:27:38;;;;;;;;;;;;;;;23.08;62.33;100332.31;5003610;28;7035;-74
2022/08/18 06:30:48;;;;;;;;;;;;;;;23.11;62.63;100331.41;4981353;28;6836;-74
2022/08/18 06:34:12;;;;;;;;;;;;;;;23.14;62.69;100329.66;4996172;28;12345;-74
2022/08/18 06:36:57;;;;;;;;;;;;;;;23.19;62.05;100328.78;4969524;28;6808;-73
2022/08/18 06:39:35;;;;;;;;;;;;;;;23.21;61.94;100333.09;4980166;28;8916;-73
2022/08/18 06:42:04;;;;;;;;;;;;;;;23.23;62.59;100341.84;4974677;28;7094;-73
2022/08/18 06:44:52;;;;;;;;;;;;;;;23.26;62.47;100347.03;4982756;28;6958;-73
2022/08/18 06:48:06;;;;;;;;;;;;;;;23.29;62.55;100343.56;5005537;28;7135;-73
2022/08/18 06:50:54;;;;;;;;;;;;;;;23.34;62.32;100347.00;5006150;28;6836;-73
2022/08/18 06:53:21;;;;;;;;;;;;;;;23.38;62.04;100343.53;5009217;28;7146;-73
2022/08/18 06:55:49;;;;;;;;;;;;;;;23.40;62.11;100344.38;5012166;28;6920;-73
2022/08/18 06:58:15;;;;;;;;;;;;;;;23.43;62.26;100341.72;4977788;28;6788;-73
2022/08/18 07:00:59;;;;;;;;;;;;;;;23.50;61.90;100346.94;5014111;28;7362;-74
2022/08/18 07:03:47;;;;;;;;;;;;;;;23.56;61.78;100339.03;5013224;28;6808;-74
2022/08/18 07:06:19;;;;;;;;;;;;;;;23.62;61.80;100336.38;4979603;28;7283;-74
2022/08/18 07:08:48;;;;;;;;;;;;;;;23.67;61.56;100341.56;4984121;28;7173;-74
2022/08/18 07:11:28;;;;;;;;;;;;;;;23.73;61.27;100338.91;4998720;28;7237;-73
2022/08/18 07:14:13;;;;;;;;;;;;;;;23.78;61.31;100344.13;4982396;28;7011;-73
2022/08/18 07:16:39;;;;;;;;;;;;;;;23.82;61.06;100348.44;5010234;28;6879;-74
2022/08/18 07:19:15;;;;;;;;;;;;;;;23.87;61.32;100338.81;5011831;28;7979;-75
2022/08/18 07:21:43;;;;;;;;;;;;;;;23.92;61.06;100333.53;4979161;28;6880;-74
2022/08/18 07:24:24;;;;;;;;;;;;;;;23.92;61.02;100334.41;5013672;28;7130;-74
2022/08/18 07:27:16;;;;;;;;;;;;;;;23.94;61.10;100340.47;5008466;28;7970;-74
2022/08/18 07:30:23;;;;;;;;;;;;;;;23.96;60.59;100338.75;4980855;28;6780;-73
2022/08/18 07:33:01;;;;;;;;;;;;;;;24.02;61.11;100339.56;4999231;28;11089;-74
2022/08/18 07:35:50;;;;;;;;;;;;;;;24.07;60.46;100333.44;4972695;28;6834;-74
2022/08/18 07:38:40;;;;;;;;;;;;;;;24.10;60.31;100333.41;5000443;28;7185;-74
2022/08/18 07:41:37;;;;;;;;;;;;;;;24.12;60.13;100331.66;5006001;28;7348;-74
2022/08/18 07:44:30;;;;;;;;;;;;;;;24.17;60.69;100335.97;4990606;28;7318;-74
2022/08/18 07:47:11;;;;;;;;;;;;;;;24.24;60.56;100332.41;4974426;28;6997;-74
2022/08/18 07:49:42;;;;;;;;;;;;;;;24.34;60.23;100338.44;4988276;28;7041;-74
2022/08/18 07:52:21;;;;;;;;;;;;;;;24.43;60.58;100343.53;5006122;28;6812;-74
2022/08/18 07:55:09;;;;;;;;;;;;;;;24.54;59.77;100343.44;4988163;28;7055;-74
2022/08/18 07:58:25;;;;;;;;;;;;;;;24.63;59.50;100342.50;5006523;28;6820;-74
2022/08/18 08:01:17;;;;;;;;;;;;;;;24.76;60.03;100344.06;4991801;28;7008;-74
2022/08/18 08:04:07;;;;;;;;;;;;;;;24.92;59.63;100349.19;5005863;28;7012;-74
2022/08/18 08:06:52;;;;;;;;;;;;;;;25.04;59.13;100342.88;4977604;28;7173;-74
2022/08/18 08:10:14;;;;;;;;;;;;;;;25.18;59.04;100347.94;4972620;28;7931;-74
2022/08/18 08:13:17;;;;;;;;;;;;;;;25.25;59.16;100352.22;4973283;28;7144;-74
2022/08/18 08:16:14;;;;;;;;;;;;;;;25.31;58.96;100352.16;4985394;28;7001;-74
2022/08/18 08:19:22;;;;;;;;;;;;;;;25.37;58.82;100348.56;4980153;28;6890;-74
2022/08/18 08:22:17;;;;;;;;;;;;;;;25.43;58.12;100345.84;4972524;28;7205;-75
2022/08/18 08:24:55;;;;;;;;;;;;;;;25.49;57.54;100344.88;4976844;28;7008;-74
2022/08/18 08:28:04;;;;;;;;;;;;;;;25.51;57.59;100348.41;4976193;28;6811;-74
2022/08/18 08:30:45;;;;;;;;;;;;;;;25.52;57.14;100347.50;4962897;28;7300;-75
2022/08/18 08:33:23;;;;;;;;;;;;;;;25.55;57.01;100357.09;4979295;28;7904;-74
2022/08/18 08:36:06;;;;;;;;;;;;;;;25.57;57.10;100353.53;4979679;28;9142;-75
2022/08/18 08:39:04;;;;;;;;;;;;;;;25.60;56.86;100366.63;5005591;28;6880;-75
2022/08/18 08:41:49;;;;;;;;;;;;;;;25.64;56.58;100370.94;4969086;28;7031;-74
2022/08/18 08:44:24;;;;;;;;;;;;;;;25.68;56.60;100373.50;4962975;28;8586;-74
2022/08/18 08:47:22;;;;;;;;;;;;;;;25.69;56.79;100373.50;4987025;28;7210;-74
2022/08/18 08:50:03;;;;;;;;;;;;;;;25.69;56.37;100370.88;4985617;28;6862;-74
2022/08/18 08:52:41;;;;;;;;;;;;;;;25.67;56.21;100370.03;4973055;28;7236;-74
2022/08/18 08:55:25;;;;;;;;;;;;;;;25.68;56.63;100378.75;5002723;28;7947;-74
2022/08/18 08:58:23;;;;;;;;;;;;;;;25.63;55.85;100374.44;4992218;28;7251;-74
2022/08/18 09:00:51;;;;;;;;;;;;;;;25.59;56.04;100369.28;4977006;28;7100;-75
2022/08/18 09:03:30;;;;;;;;;;;;;;;25.57;56.21;100369.28;5017049;28;6991;-74
2022/08/18 09:06:04;;;;;;;;;;;;;;;25.54;55.74;100369.34;4977383;28;6892;-75
2022/08/18 09:08:59;;;;;;;;;;;;;;;25.53;56.02;100359.75;5002385;28;6800;-74
2022/08/18 09:12:03;;;;;;;;;;;;;;;25.59;56.10;100359.66;4970071;28;7063;-74
2022/08/18 09:14:40;;;;;;;;;;;;;;;25.68;56.49;100350.75;4969334;28;6800;-74
2022/08/18 09:17:22;;;;;;;;;;;;;;;25.82;56.11;100352.28;4974787;28;7235;-74
2022/08/18 09:20:16;;;;;;;;;;;;;;;25.96;56.46;100355.56;4979002;28;6812;-74
2022/08/18 09:22:53;;;;;;;;;;;;;;;26.10;55.68;100360.59;4998823;28;6820;-74
2022/08/18 09:25:59;;;;;;;;;;;;;;;26.26;55.57;100353.34;4989202;28;6994;-74
2022/08/18 09:28:27;;;;;;;;;;;;;;;26.41;55.52;100352.19;4966813;28;7134;-74
2022/08/18 09:31:02;;;;;;;;;;;;;;;26.62;55.31;100345.66;4976239;28;6796;-74
2022/08/18 09:33:42;;;;;;;;;;;;;;;26.88;55.87;100352.16;4973182;28;6859;-74
2022/08/18 09:36:29;;;;;;;;;;;;;;;27.18;55.29;100348.91;5004539;28;7009;-74
2022/08/18 09:42:27;;;;;;;;;;;;;;;27.70;53.04;100348.63;4974297;28;6800;-74
2022/08/18 09:44:54;;;;;;;;;;;;;;;27.80;52.39;100352.78;5002545;28;6827;-74
2022/08/18 09:47:19;;;;;;;;;;;;;;;27.91;51.74;100349.00;4974473;28;7127;-74
2022/08/18 09:49:52;;;;;;;;;;;;;;;28.01;51.36;100347.91;4969358;28;6861;-74
2022/08/18 09:52:26;;;;;;;;;;;;;;;28.09;51.15;100342.41;4982927;28;7167;-75
2022/08/18 09:54:57;;;;;;;;;;;;;;;28.16;51.22;100343.13;4971622;28;6816;-74
2022/08/18 09:57:28;;;;;;;;;;;;;;;28.27;51.68;100346.34;4973142;28;6800;-74
2022/08/18 10:00:02;;;;;;;;;;;;;;;28.42;50.61;100345.06;5020835;28;6967;-74
2022/08/18 10:02:27;;;;;;;;;;;;;;;28.65;50.32;100340.94;4969820;28;7165;-74
2022/08/18 10:05:15;;;;;;;;;;;;;;;28.86;49.28;100350.03;4977144;28;6772;-74
2022/08/18 10:07:55;;;;;;;;;;;;;;;29.04;49.01;100347.75;5008149;28;6992;-74
2022/08/18 10:10:41;;;;;;;;;;;;;;;29.29;48.88;100336.47;5003395;28;6975;-74
2022/08/18 10:13:37;;;;;;;;;;;;;;;29.52;48.78;100333.97;4980254;28;6796;-74
2022/08/18 10:16:59;;;;;;;;;;;;;;;29.77;47.68;100327.03;4969355;28;7177;-74
2022/08/18 10:20:18;;;;;;;;;;;;;;;30.08;46.01;100333.94;5002689;28;7062;-74
2022/08/18 10:22:47;;;;;;;;;;;;;;;30.34;45.73;100330.38;5001411;28;6853;-74
2022/08/18 10:25:47;;;;;;;;;;;;;;;30.66;44.43;100332.78;5006729;28;6800;-74
2022/08/18 10:28:55;;;;;;;;;;;;;;;30.96;42.88;100329.03;4975417;28;6800;-74
2022/08/18 10:31:22;;;;;;;;;;;;;;;31.02;43.02;100328.81;4975420;28;6841;-74
2022/08/18 10:34:10;;;;;;;;;;;;;;;31.02;42.26;100323.53;4973618;28;6784;-74
2022/08/18 10:37:22;;;;;;;;;;;;;;;30.87;41.98;100325.81;4990298;28;7012;-74
2022/08/18 10:39:59;;;;;;;;;;;;;;;30.70;41.39;100323.81;5005903;28;7478;-74
2022/08/18 10:42:41;;;;;;;;;;;;;;;30.62;41.59;100323.22;4979881;28;6823;-74
2022/08/18 10:45:25;;;;;;;;;;;;;;;30.51;41.35;100323.59;4972470;28;6986;-74
2022/08/18 10:48:03;;;;;;;;;;;;;;;30.43;41.45;100310.69;4975746;28;6820;-74
2022/08/18 10:50:40;;;;;;;;;;;;;;;30.39;41.06;100313.47;5004274;28;6880;-74
2022/08/18 10:53:48;;;;;;;;;;;;;;;30.35;41.34;100308.31;4983688;28;7272;-74
2022/08/18 10:56:56;;;;;;;;;;;;;;;30.51;42.52;100305.09;5002431;28;7020;-74
2022/08/18 10:59:57;;;;;;;;;;;;;;;30.87;41.01;100294.09;4973546;28;7103;-74
2022/08/18 11:02:47;;;;;;;;;;;;;;;31.05;40.06;100291.63;4954520;28;7094;-74
2022/08/18 11:05:23;;;;;;;;;;;;;;;31.07;40.37;100292.44;4964502;28;6984;-74
2022/08/18 11:07:56;;;;;;;;;;;;;;;30.99;40.05;100297.16;4963443;28;6800;-74
2022/08/18 11:10:37;;;;;;;;;;;;;;;30.86;39.76;100297.66;4953092;28;6943;-74
2022/08/18 11:13:24;;;;;;;;;;;;;;;30.80;39.68;100303.16;4992102;28;7276;-74
2022/08/18 11:16:24;;;;;;;;;;;;;;;30.83;39.35;100297.78;4958992;28;8669;-74
2022/08/18 11:19:06;;;;;;;;;;;;;;;30.86;40.04;100292.34;4961863;28;6792;-74
2022/08/18 11:21:34;;;;;;;;;;;;;;;30.84;39.42;100288.91;4991674;28;6938;-74
2022/08/18 11:24:10;;;;;;;;;;;;;;;30.77;39.07;100295.34;4954482;28;8006;-75
2022/08/18 11:26:48;;;;;;;;;;;;;;;30.68;39.07;100293.94;4959586;28;7201;-75
2022/08/18 11:29:31;;;;;;;;;;;;;;;30.56;39.14;100294.34;4950764;28;8495;-74
2022/08/18 11:32:16;;;;;;;;;;;;;;;30.35;39.26;100287.19;4982589;28;6808;-74
2022/08/18 11:34:58;;;;;;;;;;;;;;;30.15;39.28;100284.41;4993249;28;7291;-74
2022/08/18 11:37:44;;;;;;;;;;;;;;;29.87;39.68;100287.97;4958855;28;6812;-74
2022/08/18 11:40:41;;;;;;;;;;;;;;;29.66;40.11;100277.22;4982027;28;7109;-74
2022/08/18 11:43:22;;;;;;;;;;;;;;;29.68;40.79;100283.31;4962372;28;6970;-75
2022/08/18 11:45:54;;;;;;;;;;;;;;;29.80;40.48;100293.47;4947328;28;6968;-75
2022/08/18 11:48:44;;;;;;;;;;;;;;;29.94;40.28;100297.41;4939436;28;7899;-75
2022/08/18 11:51:20;;;;;;;;;;;;;;;30.03;40.89;100293.56;4940448;28;7009;-75
2022/08/18 11:53:48;;;;;;;;;;;;;;;30.04;40.43;100290.00;4955081;28;6804;-75
2022/08/18 11:56:19;;;;;;;;;;;;;;;29.94;39.51;100292.13;4953745;28;6894;-74
2022/08/18 11:59:05;;;;;;;;;;;;;;;29.83;40.79;100287.22;4956302;28;6973;-75
2022/08/18 12:01:53;;;;;;;;;;;;;;;29.77;40.48;100295.34;4968420;28;7173;-75
2022/08/18 12:04:19;;;;;;;;;;;;;;;29.72;40.24;100294.66;4956480;28;10605;-74
2022/08/18 12:06:54;;;;;;;;;;;;;;;29.66;40.89;100288.63;4955611;28;6803;-75
2022/08/18 12:09:32;;;;;;;;;;;;;;;29.61;40.46;100284.44;4956635;28;7201;-75
2022/08/18 12:12:18;;;;;;;;;;;;;;;29.68;41.29;100298.28;4978284;28;7746;-74
2022/08/18 12:15:13;;;;;;;;;;;;;;;29.76;40.87;100299.78;4949364;28;6869;-75
2022/08/18 12:17:41;;;;;;;;;;;;;;;29.88;41.18;100303.75;4951492;28;7186;-74
2022/08/18 12:20:09;;;;;;;;;;;;;;;29.99;40.45;100310.47;4954482;28;6962;-74
2022/08/18 12:22:38;;;;;;;;;;;;;;;30.12;40.10;100310.91;4951398;28;6828;-74
2022/08/18 12:25:09;;;;;;;;;;;;;;;30.28;40.47;100319.19;4958138;28;7336;-75
2022/08/18 12:27:34;;;;;;;;;;;;;;;30.42;40.14;100318.66;4960573;28;7215;-75
2022/08/18 12:30:04;;;;;;;;;;;;;;;30.51;39.43;100328.03;4952640;28;6792;-74
2022/08/18 12:32:33;;;;;;;;;;;;;;;30.58;39.95;100340.97;4974637;28;7248;-74
2022/08/18 12:34:59;;;;;;;;;;;;;;;30.72;39.60;100351.06;5006694;28;6949;-75
2022/08/18 12:37:28;;;;;;;;;;;;;;;30.97;39.56;100352.81;5007386;28;7173;-75
2022/08/18 12:39:56;;;;;;;;;;;;;;;31.24;38.92;100351.81;4974880;28;6803;-74
2022/08/18 12:42:23;;;;;;;;;;;;;;;31.41;38.19;100357.31;4986777;28;8161;-74
2022/08/18 12:44:51;;;;;;;;;;;;;;;31.47;38.05;100357.97;4984187;28;7103;-74
2022/08/18 12:47:22;;;;;;;;;;;;;;;31.48;38.14;100352.63;4975716;28;6942;-74
2022/08/18 12:49:48;;;;;;;;;;;;;;;31.48;38.20;100352.63;5006179;28;6815;-74
2022/08/18 12:52:16;;;;;;;;;;;;;;;31.47;38.35;100347.38;4977744;28;6954;-75
2022/08/18 12:54:42;;;;;;;;;;;;;;;31.50;38.15;100337.53;4958165;28;6990;-75
2022/08/18 12:57:25;;;;;;;;;;;;;;;31.60;37.96;100340.66;4975007;28;6804;-75
2022/08/18 12:59:51;;;;;;;;;;;;;;;31.69;37.49;100324.41;4986494;28;6985;-75
2022/08/18 13:02:17;;;;;;;;;;;;;;;31.77;37.45;100315.25;4973374;28;7220;-75
2022/08/18 13:04:43;;;;;;;;;;;;;;;31.82;37.34;100289.47;5008047;28;7065;-75
2022/08/18 13:07:13;;;;;;;;;;;;;;;31.83;37.04;100281.47;4997111;28;7406;-75
2022/08/18 13:09:40;;;;;;;;;;;;;;;31.95;36.67;100288.00;4984063;28;7078;-75
2022/08/18 13:12:06;;;;;;;;;;;;;;;32.10;36.10;100275.03;4975071;28;6792;-75
2022/08/18 13:14:33;;;;;;;;;;;;;;;32.17;35.66;100276.47;5006748;28;7267;-75
2022/08/18 13:16:59;;;;;;;;;;;;;;;32.23;35.61;100270.03;5002900;28;6795;-75
2022/08/18 13:19:24;;;;;;;;;;;;;;;32.32;35.78;100272.28;4972935;28;6980;-75
2022/08/18 13:21:50;;;;;;;;;;;;;;;32.46;35.48;100276.97;4975309;28;6969;-75
2022/08/18 13:24:17;;;;;;;;;;;;;;;32.58;35.18;100274.69;4973518;28;7081;-74
2022/08/18 13:26:46;;;;;;;;;;;;;;;32.67;35.09;100261.84;5004339;28;6837;-74
2022/08/18 13:29:15;;;;;;;;;;;;;;;32.75;34.47;100256.19;4986395;28;7021;-75
2022/08/18 13:31:42;;;;;;;;;;;;;;;32.73;34.10;100247.41;5004876;28;7002;-75
2022/08/18 13:34:07;;;;;;;;;;;;;;;32.89;34.63;100246.69;5009191;28;6895;-74
2022/08/18 13:36:54;;;;;;;;;;;;;;;33.30;34.02;100242.97;5029541;28;6960;-75
2022/08/18 13:39:23;;;;;;;;;;;;;;;33.86;33.64;100243.69;5001950;28;7144;-75
2022/08/18 13:41:52;;;;;;;;;;;;;;;34.39;33.30;100246.25;5011854;28;6848;-75
2022/08/18 13:44:21;;;;;;;;;;;;;;;34.89;32.40;100247.03;4983085;28;6918;-75
2022/08/18 13:46:49;;;;;;;;;;;;;;;35.16;31.32;100245.59;5011018;28;6851;-75
2022/08/18 13:49:18;;;;;;;;;;;;;;;35.22;31.57;100245.22;5008710;28;6803;-75